createdAt,value
2022-11-24T00:02:32.794Z,17.90
2022-11-24T00:05:39.169Z,17.90
2022-11-24T00:08:43.480Z,17.80
2022-11-24T00:11:45.865Z,17.70
2022-11-24T00:14:47.984Z,17.70
2022-11-24T00:17:49.968Z,17.60
2022-11-24T00:20:55.071Z,17.60
2022-11-24T00:23:57.580Z,17.60
2022-11-24T00:26:59.551Z,17.50
2022-11-24T00:30:01.646Z,17.60
2022-11-24T00:33:03.680Z,17.60
2022-11-24T00:36:06.044Z,17.60
2022-11-24T00:39:12.239Z,17.60
2022-11-24T00:42:14.491Z,17.60
2022-11-24T00:45:16.507Z,17.70
2022-11-24T00:48:18.488Z,17.70
2022-11-24T00:51:22.640Z,17.70
2022-11-24T00:54:24.713Z,17.70
2022-11-24T00:57:26.700Z,17.70
2022-11-24T01:00:28.709Z,17.70
2022-11-24T01:03:31.087Z,17.80
2022-11-24T01:06:33.230Z,17.80
2022-11-24T01:09:35.205Z,17.80
2022-11-24T01:12:38.110Z,17.80
2022-11-24T01:15:40.725Z,17.80
2022-11-24T01:18:42.864Z,17.80
2022-11-24T01:21:45.007Z,17.90
2022-11-24T01:24:47.033Z,17.80
2022-11-24T01:27:49.079Z,17.90
2022-11-24T01:31:01.996Z,17.90
2022-11-24T01:34:05.266Z,17.90
2022-11-24T01:37:07.321Z,17.90
2022-11-24T01:40:10.083Z,18.00
2022-11-24T01:43:20.431Z,17.90
2022-11-24T01:46:41.547Z,17.90
2022-11-24T01:49:47.088Z,17.90
2022-11-24T01:52:56.746Z,17.90
2022-11-24T01:55:59.231Z,17.90
2022-11-24T01:59:05.793Z,17.90
2022-11-24T02:02:08.892Z,17.90
2022-11-24T02:05:28.484Z,17.90
2022-11-24T02:08:41.804Z,17.90
2022-11-24T02:11:44.876Z,17.90
2022-11-24T02:14:46.990Z,17.90
2022-11-24T02:17:48.987Z,17.90
2022-11-24T02:20:51.024Z,17.90
2022-11-24T02:24:21.923Z,17.90
2022-11-24T02:27:23.906Z,17.90
2022-11-24T02:30:26.053Z,17.90
2022-11-24T02:33:28.384Z,17.90
2022-11-24T02:36:30.707Z,17.90
2022-11-24T02:39:32.744Z,17.90
2022-11-24T02:42:44.549Z,17.90
2022-11-24T02:45:46.892Z,17.90
2022-11-24T02:48:48.912Z,17.90
2022-11-24T02:51:50.950Z,17.90
2022-11-24T02:54:52.915Z,17.90
2022-11-24T02:57:54.949Z,17.90
2022-11-24T03:00:58.073Z,18.00
2022-11-24T03:04:01.264Z,18.00
2022-11-24T03:07:03.313Z,18.00
2022-11-24T03:10:06.038Z,18.00
2022-11-24T03:13:08.750Z,18.00
2022-11-24T03:16:11.745Z,18.00
2022-11-24T03:19:13.775Z,18.00
2022-11-24T03:22:15.996Z,18.00
2022-11-24T03:25:18.546Z,18.00
2022-11-24T03:28:20.549Z,18.00
2022-11-24T03:31:23.522Z,18.00
2022-11-24T03:34:25.576Z,18.00
2022-11-24T03:37:28.293Z,18.00
2022-11-24T03:40:30.412Z,18.00
2022-11-24T03:43:32.737Z,18.00
2022-11-24T03:46:35.271Z,18.00
2022-11-24T03:49:37.265Z,18.00
2022-11-24T03:52:39.402Z,18.10
2022-11-24T03:55:43.708Z,18.00
2022-11-24T03:58:45.661Z,18.00
2022-11-24T04:01:47.714Z,18.00
2022-11-24T04:04:52.636Z,18.00
2022-11-24T04:07:57.728Z,18.00
2022-11-24T04:10:59.828Z,18.00
2022-11-24T04:14:01.831Z,18.00
2022-11-24T04:17:04.635Z,18.00
2022-11-24T04:20:07.994Z,18.10
2022-11-24T04:23:11.216Z,18.10
2022-11-24T04:26:13.944Z,18.10
2022-11-24T04:29:15.966Z,18.10
2022-11-24T04:32:18.166Z,18.10
2022-11-24T04:35:20.247Z,18.10
2022-11-24T04:39:23.424Z,18.00
2022-11-24T04:41:44.138Z,18.00
2022-11-24T04:44:46.206Z,18.00
2022-11-24T04:47:48.203Z,18.00
2022-11-24T04:50:50.258Z,18.10
2022-11-24T04:53:52.340Z,18.10
2022-11-24T04:56:54.341Z,18.10
2022-11-24T04:59:56.568Z,18.10
2022-11-24T05:02:58.697Z,18.10
2022-11-24T05:06:00.776Z,18.10
2022-11-24T05:09:02.845Z,18.10
2022-11-24T05:12:05.283Z,18.10
2022-11-24T05:15:13.027Z,18.10
2022-11-24T05:18:16.968Z,18.10
2022-11-24T05:21:19.119Z,18.10
2022-11-24T05:24:21.323Z,18.10
2022-11-24T05:27:23.594Z,18.10
2022-11-24T05:30:25.598Z,18.10
2022-11-24T05:33:28.841Z,18.10
2022-11-24T05:36:49.297Z,18.10
2022-11-24T05:39:51.426Z,18.10
2022-11-24T05:42:53.459Z,18.10
2022-11-24T05:45:55.476Z,18.10
2022-11-24T05:48:57.441Z,18.10
2022-11-24T05:52:01.908Z,18.10
2022-11-24T05:55:05.515Z,18.10
2022-11-24T05:58:10.024Z,18.10
2022-11-24T06:01:12.039Z,18.10
2022-11-24T06:04:14.636Z,18.10
2022-11-24T06:07:17.379Z,18.10
2022-11-24T06:10:22.180Z,18.00
2022-11-24T06:13:24.207Z,18.00
2022-11-24T06:16:26.678Z,18.00
2022-11-24T06:19:31.482Z,18.10
2022-11-24T06:22:34.097Z,18.10
2022-11-24T06:25:36.135Z,18.00
2022-11-24T06:28:38.188Z,18.00
2022-11-24T06:31:40.404Z,18.00
2022-11-24T06:34:43.124Z,18.00
2022-11-24T06:37:46.001Z,18.00
2022-11-24T06:40:48.015Z,18.10
2022-11-24T06:43:51.250Z,18.10
2022-11-24T06:46:53.473Z,18.00
2022-11-24T06:49:55.405Z,18.10
2022-11-24T06:52:57.934Z,18.00
2022-11-24T06:56:00.761Z,18.00
2022-11-24T06:59:03.318Z,18.00
2022-11-24T07:02:06.478Z,18.00
2022-11-24T07:05:08.664Z,18.00
2022-11-24T07:08:16.145Z,18.10
2022-11-24T07:11:22.618Z,18.10
2022-11-24T07:14:24.718Z,18.00
2022-11-24T07:17:27.033Z,18.10
2022-11-24T07:20:29.178Z,18.10
2022-11-24T07:23:31.550Z,18.00
2022-11-24T07:26:37.423Z,18.00
2022-11-24T07:29:39.612Z,18.10
2022-11-24T07:32:41.626Z,18.10
2022-11-24T07:35:43.696Z,18.10
2022-11-24T07:38:46.099Z,18.10
2022-11-24T07:41:48.259Z,18.10
2022-11-24T07:44:50.337Z,18.10
2022-11-24T07:47:52.428Z,18.10
2022-11-24T07:50:56.223Z,18.20
2022-11-24T07:53:58.527Z,18.20
2022-11-24T07:57:01.392Z,18.20
2022-11-24T08:00:06.103Z,18.20
2022-11-24T08:03:08.103Z,18.30
2022-11-24T08:06:30.128Z,18.40
2022-11-24T08:09:32.370Z,18.50
2022-11-24T08:12:34.515Z,18.60
2022-11-24T08:15:36.484Z,18.60
2022-11-24T08:18:39.585Z,18.70
2022-11-24T08:21:41.592Z,18.90
2022-11-24T08:24:47.250Z,19.00
2022-11-24T08:27:49.291Z,19.20
2022-11-24T08:30:52.095Z,19.50
2022-11-24T08:33:56.216Z,20.00
2022-11-24T08:36:58.314Z,20.30
2022-11-24T08:40:00.678Z,20.40
2022-11-24T08:43:03.016Z,20.40
2022-11-24T08:46:08.382Z,20.50
2022-11-24T08:49:11.539Z,20.50
2022-11-24T08:52:14.723Z,20.70
2022-11-24T08:55:17.041Z,20.70
2022-11-24T08:58:19.481Z,20.70
2022-11-24T09:01:22.567Z,20.50
2022-11-24T09:04:24.728Z,20.50
2022-11-24T09:07:26.963Z,20.40
2022-11-24T09:10:28.940Z,20.30
2022-11-24T09:13:32.314Z,20.30
2022-11-24T09:16:34.424Z,20.40
2022-11-24T09:19:36.698Z,20.40
2022-11-24T09:22:40.263Z,20.50
2022-11-24T09:25:42.341Z,20.50
2022-11-24T09:28:45.907Z,20.50
2022-11-24T09:31:47.947Z,20.40
2022-11-24T09:34:52.779Z,20.40
2022-11-24T09:37:54.896Z,20.30
2022-11-24T09:41:08.144Z,20.20
2022-11-24T09:44:35.105Z,20.20
2022-11-24T09:47:55.043Z,20.10
2022-11-24T09:51:00.224Z,20.00
2022-11-24T09:54:11.483Z,20.30
2022-11-24T09:57:15.985Z,20.40
2022-11-24T10:00:18.440Z,20.60
2022-11-24T10:03:33.051Z,21.10
2022-11-24T10:06:48.076Z,21.20
2022-11-24T10:10:19.796Z,21.50
2022-11-24T10:13:46.148Z,21.60
2022-11-24T10:17:17.179Z,21.90
2022-11-24T10:20:49.031Z,22.10
2022-11-24T10:23:57.371Z,22.20
2022-11-24T10:27:38.972Z,22.10
2022-11-24T10:30:41.071Z,22.50
2022-11-24T10:33:45.994Z,22.70
2022-11-24T10:37:09.231Z,22.60
2022-11-24T10:40:48.713Z,22.50
2022-11-24T10:43:44.630Z,22.30
2022-11-24T10:46:46.837Z,22.10
2022-11-24T10:50:17.873Z,22.00
2022-11-24T10:53:30.899Z,21.90
2022-11-24T10:56:40.359Z,21.90
2022-11-24T10:59:42.464Z,21.90
2022-11-24T11:02:45.990Z,21.70
2022-11-24T11:05:56.044Z,21.60
2022-11-24T11:09:07.168Z,21.40
2022-11-24T11:12:36.275Z,21.20
2022-11-24T11:15:33.358Z,20.90
2022-11-24T11:18:36.588Z,20.80
2022-11-24T11:21:39.504Z,20.70
2022-11-24T11:24:47.266Z,20.60
2022-11-24T11:27:50.015Z,20.50
2022-11-24T11:31:22.052Z,20.40
2022-11-24T11:34:30.315Z,20.40
2022-11-24T11:37:34.008Z,20.30
2022-11-24T11:40:39.391Z,20.30
2022-11-24T11:43:41.820Z,20.20
2022-11-24T11:46:45.218Z,20.20
2022-11-24T11:49:49.531Z,20.20
2022-11-24T11:53:12.985Z,20.10
2022-11-24T11:56:30.280Z,20.00
2022-11-24T11:59:45.721Z,20.00
2022-11-24T12:03:09.621Z,19.90
2022-11-24T12:06:25.460Z,19.70
2022-11-24T12:10:03.207Z,19.60
2022-11-24T12:13:26.306Z,19.50
2022-11-24T12:16:48.412Z,19.50
2022-11-24T12:20:09.276Z,19.50
2022-11-24T12:23:32.094Z,19.50
2022-11-24T12:27:05.917Z,19.60
2022-11-24T12:30:28.741Z,19.70
2022-11-24T12:33:50.972Z,19.80
2022-11-24T12:37:12.358Z,19.80
2022-11-24T12:40:47.364Z,19.70
2022-11-24T12:43:53.552Z,19.70
2022-11-24T12:47:28.983Z,19.70
2022-11-24T12:50:35.541Z,19.60
2022-11-24T12:53:38.862Z,19.60
2022-11-24T12:56:43.510Z,19.60
2022-11-24T13:00:09.065Z,19.60
2022-11-24T13:03:38.576Z,19.60
2022-11-24T13:06:50.779Z,19.70
2022-11-24T13:10:40.089Z,19.60
2022-11-24T13:14:06.906Z,19.60
2022-11-24T13:17:50.226Z,19.70
2022-11-24T13:20:57.311Z,19.70
2022-11-24T13:24:23.472Z,19.70
2022-11-24T13:27:39.778Z,19.70
2022-11-24T13:30:44.392Z,19.70
2022-11-24T13:33:47.566Z,19.70
2022-11-24T13:36:56.826Z,19.80
2022-11-24T13:40:20.808Z,19.80
2022-11-24T13:43:23.405Z,19.90
2022-11-24T13:47:05.734Z,19.80
2022-11-24T13:50:10.022Z,19.90
2022-11-24T13:53:40.956Z,19.90
2022-11-24T13:56:44.558Z,20.00
2022-11-24T13:59:50.817Z,20.00
2022-11-24T14:02:56.464Z,20.20
2022-11-24T14:05:59.286Z,20.30
2022-11-24T14:09:34.117Z,20.40
2022-11-24T14:12:36.091Z,20.40
2022-11-24T14:15:38.156Z,20.50
2022-11-24T14:18:42.543Z,20.50
2022-11-24T14:21:45.239Z,20.50
2022-11-24T14:24:53.816Z,20.30
2022-11-24T14:27:56.457Z,20.30
2022-11-24T14:31:26.142Z,20.40
2022-11-24T14:34:30.493Z,20.30
2022-11-24T14:37:32.713Z,20.30
2022-11-24T14:40:45.881Z,20.20
2022-11-24T14:43:48.032Z,20.30
2022-11-24T14:47:00.972Z,20.30
2022-11-24T14:50:19.106Z,20.20
2022-11-24T14:53:26.220Z,20.20
2022-11-24T14:56:32.765Z,20.10
2022-11-24T14:59:36.509Z,20.10
2022-11-24T15:02:41.460Z,20.20
2022-11-24T15:05:57.292Z,20.10
2022-11-24T15:08:59.383Z,20.00
2022-11-24T15:12:16.638Z,20.00
2022-11-24T15:15:20.571Z,19.90
2022-11-24T15:18:30.473Z,19.80
2022-11-24T15:21:37.129Z,19.80
2022-11-24T15:24:51.188Z,19.70
2022-11-24T15:27:54.006Z,19.60
2022-11-24T15:31:25.502Z,19.60
2022-11-24T15:34:27.626Z,19.70
2022-11-24T15:37:34.054Z,19.70
2022-11-24T15:40:39.883Z,19.70
2022-11-24T15:43:42.163Z,19.80
2022-11-24T15:46:44.310Z,19.70
2022-11-24T15:49:46.407Z,19.70
2022-11-24T15:52:49.152Z,19.70
2022-11-24T15:55:52.297Z,19.60
2022-11-24T15:58:55.236Z,19.60
2022-11-24T16:01:57.261Z,19.60
2022-11-24T16:04:59.321Z,19.50
2022-11-24T16:08:01.419Z,19.50
2022-11-24T16:11:03.853Z,19.40
2022-11-24T16:14:05.948Z,19.30
2022-11-24T16:17:08.010Z,19.20
2022-11-24T16:20:10.543Z,19.20
2022-11-24T16:23:12.783Z,19.10
2022-11-24T16:26:15.006Z,19.10
2022-11-24T16:29:17.076Z,19.00
2022-11-24T16:32:19.177Z,19.00
2022-11-24T16:35:21.372Z,19.00
2022-11-24T16:38:23.424Z,19.00
2022-11-24T16:41:27.104Z,18.90
2022-11-24T16:44:29.175Z,18.90
2022-11-24T16:47:31.193Z,18.90
2022-11-24T16:50:33.171Z,18.90
2022-11-24T16:53:35.232Z,18.80
2022-11-24T16:56:37.372Z,18.80
2022-11-24T16:59:39.556Z,18.80
2022-11-24T17:02:41.599Z,18.70
2022-11-24T17:05:43.754Z,18.70
2022-11-24T17:08:47.256Z,18.70
2022-11-24T17:11:49.318Z,18.70
2022-11-24T17:15:16.426Z,18.70
2022-11-24T17:18:24.389Z,18.60
2022-11-24T17:21:27.969Z,18.60
2022-11-24T17:24:30.076Z,18.50
2022-11-24T17:27:32.092Z,18.50
2022-11-24T17:30:34.075Z,18.50
2022-11-24T17:33:36.358Z,18.40
2022-11-24T17:36:39.852Z,18.40
2022-11-24T17:39:42.412Z,18.40
2022-11-24T17:42:45.491Z,18.30
2022-11-24T17:45:54.326Z,18.20
2022-11-24T17:48:57.244Z,18.20
2022-11-24T17:51:59.216Z,18.10
2022-11-24T17:55:02.464Z,18.10
2022-11-24T17:58:04.854Z,18.00
2022-11-24T18:01:07.446Z,18.00
2022-11-24T18:04:09.663Z,17.90
2022-11-24T18:07:11.765Z,17.90
2022-11-24T18:10:13.803Z,17.90
2022-11-24T18:13:34.306Z,17.80
2022-11-24T18:16:38.101Z,17.80
2022-11-24T18:19:40.431Z,17.80
2022-11-24T18:23:04.523Z,17.70
2022-11-24T18:26:06.521Z,17.70
2022-11-24T18:29:09.618Z,17.70
2022-11-24T18:32:11.785Z,17.70
2022-11-24T18:35:13.994Z,17.70
2022-11-24T18:38:16.163Z,17.70
2022-11-24T18:41:18.825Z,17.70
2022-11-24T18:44:20.856Z,17.70
2022-11-24T18:47:23.062Z,17.70
2022-11-24T18:50:25.087Z,17.70
2022-11-24T18:53:27.602Z,17.80
2022-11-24T18:56:30.047Z,17.70
2022-11-24T18:59:32.036Z,17.70
2022-11-24T19:02:34.729Z,17.70
2022-11-24T19:05:36.839Z,17.60
2022-11-24T19:08:39.007Z,17.60
2022-11-24T19:11:43.165Z,17.60
2022-11-24T19:14:45.238Z,17.50
2022-11-24T19:17:47.583Z,17.50
2022-11-24T19:20:49.776Z,17.40
2022-11-24T19:23:51.885Z,17.40
2022-11-24T19:26:54.728Z,17.30
2022-11-24T19:29:56.827Z,17.30
2022-11-24T19:32:59.987Z,17.30
2022-11-24T19:36:04.891Z,17.20
2022-11-24T19:39:07.150Z,17.20
2022-11-24T19:42:09.518Z,17.20
2022-11-24T19:45:11.662Z,17.10
2022-11-24T19:48:13.780Z,17.10
2022-11-24T19:51:18.385Z,17.10
2022-11-24T19:54:20.457Z,17.00
2022-11-24T19:57:22.541Z,17.00
2022-11-24T20:00:27.894Z,17.00
2022-11-24T20:03:32.651Z,17.00
2022-11-24T20:06:37.950Z,17.00
2022-11-24T20:09:40.164Z,17.00
2022-11-24T20:12:42.230Z,17.00
2022-11-24T20:15:44.243Z,16.90
2022-11-24T20:18:47.960Z,17.00
2022-11-24T20:21:50.605Z,17.00
2022-11-24T20:24:52.647Z,16.90
2022-11-24T20:27:55.961Z,16.90
2022-11-24T20:31:06.251Z,16.90
2022-11-24T20:34:09.379Z,16.90
2022-11-24T20:37:13.641Z,16.90
2022-11-24T20:40:15.947Z,16.90
2022-11-24T20:43:17.915Z,16.80
2022-11-24T20:46:26.163Z,16.90
2022-11-24T20:49:28.485Z,16.80
2022-11-24T20:52:30.697Z,16.80
2022-11-24T20:55:34.524Z,16.70
2022-11-24T20:58:37.415Z,16.70
2022-11-24T21:01:42.606Z,16.70
2022-11-24T21:04:44.756Z,16.70
2022-11-24T21:07:46.892Z,16.70
2022-11-24T21:10:56.731Z,16.60
2022-11-24T21:13:59.347Z,16.60
2022-11-24T21:17:01.602Z,16.50
2022-11-24T21:20:03.809Z,16.50
2022-11-24T21:23:05.976Z,16.50
2022-11-24T21:26:14.896Z,16.50
2022-11-24T21:29:21.978Z,16.40
2022-11-24T21:32:24.976Z,16.40
2022-11-24T21:35:27.277Z,16.30
2022-11-24T21:38:29.952Z,16.30
2022-11-24T21:41:33.603Z,16.30
2022-11-24T21:44:37.125Z,16.30
2022-11-24T21:47:39.568Z,16.20
2022-11-24T21:50:41.617Z,16.30
2022-11-24T21:53:46.250Z,16.30
2022-11-24T21:56:48.142Z,16.30
2022-11-24T21:59:50.201Z,16.20
2022-11-24T22:02:54.723Z,16.30
2022-11-24T22:05:58.647Z,16.30
2022-11-24T22:09:00.689Z,16.30
2022-11-24T22:12:02.822Z,16.30
2022-11-24T22:15:05.478Z,16.30
2022-11-24T22:18:07.600Z,16.30
2022-11-24T22:21:30.003Z,16.30
2022-11-24T22:24:32.418Z,16.30
2022-11-24T22:27:34.603Z,16.30
2022-11-24T22:30:36.810Z,16.30
2022-11-24T22:33:38.879Z,16.30
2022-11-24T22:36:40.974Z,16.30
2022-11-24T22:39:43.127Z,16.30
2022-11-24T22:42:46.892Z,16.30
2022-11-24T22:45:48.975Z,16.30
2022-11-24T22:48:55.142Z,16.30
2022-11-24T22:51:57.153Z,16.30
2022-11-24T22:54:59.576Z,16.30
2022-11-24T22:58:01.573Z,16.30
2022-11-24T23:01:09.828Z,16.30
2022-11-24T23:04:12.558Z,16.30
2022-11-24T23:07:14.797Z,16.20
2022-11-24T23:10:17.012Z,16.30
2022-11-24T23:13:19.087Z,16.30
2022-11-24T23:16:22.324Z,16.30
2022-11-24T23:19:24.645Z,16.40
2022-11-24T23:22:26.688Z,16.40
2022-11-24T23:25:30.772Z,16.50
2022-11-24T23:28:33.138Z,16.50
2022-11-24T23:31:35.692Z,16.50
2022-11-24T23:34:38.042Z,16.50
2022-11-24T23:38:06.036Z,16.50
2022-11-24T23:41:10.088Z,16.50
2022-11-24T23:44:14.573Z,16.50
2022-11-24T23:47:18.072Z,16.40
2022-11-24T23:50:20.109Z,16.50
2022-11-24T23:53:22.345Z,16.40
2022-11-24T23:56:32.924Z,16.50
2022-11-24T23:59:38.142Z,16.50
